createdAt,value
2022-10-06T00:02:25.742Z,100.00
2022-10-06T00:04:52.622Z,100.00
2022-10-06T00:07:19.786Z,100.00
2022-10-06T00:09:46.851Z,100.00
2022-10-06T00:12:13.650Z,100.00
2022-10-06T00:14:40.466Z,100.00
2022-10-06T00:17:07.198Z,100.00
2022-10-06T00:19:34.006Z,100.00
2022-10-06T00:22:00.809Z,100.00
2022-10-06T00:24:27.632Z,100.00
2022-10-06T00:26:54.415Z,100.00
2022-10-06T00:29:21.859Z,100.00
2022-10-06T00:31:48.667Z,100.00
2022-10-06T00:34:15.759Z,100.00
2022-10-06T00:36:42.561Z,100.00
2022-10-06T00:39:09.480Z,100.00
2022-10-06T00:41:36.272Z,100.00
2022-10-06T00:44:03.115Z,100.00
2022-10-06T00:46:38.103Z,100.00
2022-10-06T00:49:25.111Z,100.00
2022-10-06T00:51:57.418Z,100.00
2022-10-06T00:54:25.599Z,100.00
2022-10-06T00:56:52.862Z,100.00
2022-10-06T00:59:20.056Z,100.00
2022-10-06T01:01:57.334Z,100.00
2022-10-06T01:04:25.447Z,100.00
2022-10-06T01:06:55.077Z,100.00
2022-10-06T01:09:23.797Z,100.00
2022-10-06T01:11:52.608Z,100.00
2022-10-06T01:14:20.842Z,100.00
2022-10-06T01:16:53.452Z,100.00
2022-10-06T01:19:29.348Z,100.00
2022-10-06T01:21:59.856Z,100.00
2022-10-06T01:24:28.472Z,100.00
2022-10-06T01:26:57.211Z,100.00
2022-10-06T01:29:25.240Z,100.00
2022-10-06T01:31:52.213Z,100.00
2022-10-06T01:34:19.149Z,100.00
2022-10-06T01:36:46.739Z,100.00
2022-10-06T01:39:13.894Z,100.00
2022-10-06T01:41:40.663Z,100.00
2022-10-06T01:44:07.713Z,100.00
2022-10-06T01:46:34.607Z,100.00
2022-10-06T01:49:01.551Z,100.00
2022-10-06T01:51:28.800Z,100.00
2022-10-06T01:53:55.587Z,100.00
2022-10-06T01:56:23.148Z,100.00
2022-10-06T01:58:50.372Z,100.00
2022-10-06T02:01:17.340Z,100.00
2022-10-06T02:03:44.279Z,100.00
2022-10-06T02:06:11.897Z,100.00
2022-10-06T02:08:38.962Z,100.00
2022-10-06T02:11:11.415Z,100.00
2022-10-06T02:13:42.001Z,100.00
2022-10-06T02:16:09.594Z,100.00
2022-10-06T02:18:36.992Z,100.00
2022-10-06T02:21:04.045Z,100.00
2022-10-06T02:23:31.257Z,100.00
2022-10-06T02:26:03.307Z,100.00
2022-10-06T02:28:31.691Z,100.00
2022-10-06T02:31:08.539Z,100.00
2022-10-06T02:33:38.125Z,100.00
2022-10-06T02:36:07.695Z,100.00
2022-10-06T02:38:34.926Z,100.00
2022-10-06T02:41:06.685Z,100.00
2022-10-06T02:43:35.562Z,100.00
2022-10-06T02:46:12.948Z,100.00
2022-10-06T02:48:45.341Z,100.00
2022-10-06T02:51:15.790Z,100.00
2022-10-06T02:53:48.466Z,100.00
2022-10-06T02:56:21.674Z,100.00
2022-10-06T02:58:49.709Z,100.00
2022-10-06T03:01:27.240Z,100.00
2022-10-06T03:03:57.472Z,100.00
2022-10-06T03:06:27.107Z,100.00
2022-10-06T03:09:15.535Z,100.00
2022-10-06T03:11:43.935Z,100.00
2022-10-06T03:14:22.083Z,100.00
2022-10-06T03:16:51.998Z,100.00
2022-10-06T03:19:25.530Z,100.00
2022-10-06T03:21:53.162Z,100.00
2022-10-06T03:24:22.469Z,100.00
2022-10-06T03:26:53.931Z,100.00
2022-10-06T03:29:21.063Z,100.00
2022-10-06T03:31:54.533Z,100.00
2022-10-06T03:34:21.371Z,100.00
2022-10-06T03:36:48.544Z,100.00
2022-10-06T03:39:18.968Z,100.00
2022-10-06T03:41:45.984Z,100.00
2022-10-06T03:44:14.041Z,100.00
2022-10-06T03:46:42.732Z,100.00
2022-10-06T03:49:10.539Z,100.00
2022-10-06T03:51:39.732Z,100.00
2022-10-06T03:54:11.050Z,100.00
2022-10-06T03:56:41.207Z,100.00
2022-10-06T03:59:12.626Z,100.00
2022-10-06T04:01:43.890Z,100.00
2022-10-06T04:04:14.481Z,100.00
2022-10-06T04:06:44.625Z,100.00
2022-10-06T04:09:17.805Z,100.00
2022-10-06T04:11:45.305Z,100.00
2022-10-06T04:14:15.676Z,100.00
2022-10-06T04:16:50.594Z,100.00
2022-10-06T04:19:25.502Z,100.00
2022-10-06T04:21:55.937Z,100.00
2022-10-06T04:24:24.764Z,100.00
2022-10-06T04:26:52.625Z,100.00
2022-10-06T04:29:21.232Z,100.00
2022-10-06T04:31:53.181Z,100.00
2022-10-06T04:34:31.330Z,100.00
2022-10-06T04:36:58.614Z,100.00
2022-10-06T04:39:25.828Z,100.00
2022-10-06T04:41:53.009Z,100.00
2022-10-06T04:44:24.418Z,100.00
2022-10-06T04:46:53.071Z,100.00
2022-10-06T04:49:20.961Z,100.00
2022-10-06T04:51:51.163Z,100.00
2022-10-06T04:54:21.446Z,100.00
2022-10-06T04:56:53.358Z,100.00
2022-10-06T04:59:42.896Z,100.00
2022-10-06T05:02:11.234Z,100.00
2022-10-06T05:04:38.527Z,100.00
2022-10-06T05:07:06.423Z,100.00
2022-10-06T05:09:33.308Z,100.00
2022-10-06T05:12:01.746Z,100.00
2022-10-06T05:14:28.574Z,100.00
2022-10-06T05:16:55.914Z,100.00
2022-10-06T05:19:22.935Z,100.00
2022-10-06T05:21:49.875Z,100.00
2022-10-06T05:24:22.843Z,100.00
2022-10-06T05:26:50.082Z,100.00
2022-10-06T05:29:17.098Z,100.00
2022-10-06T05:31:45.541Z,100.00
2022-10-06T05:34:14.134Z,100.00
2022-10-06T05:36:41.181Z,100.00
2022-10-06T05:39:10.510Z,100.00
2022-10-06T05:41:43.266Z,100.00
2022-10-06T05:44:11.745Z,100.00
2022-10-06T05:46:40.455Z,100.00
2022-10-06T05:49:10.482Z,100.00
2022-10-06T05:51:41.046Z,100.00
2022-10-06T05:54:14.510Z,100.00
2022-10-06T05:56:41.624Z,100.00
2022-10-06T05:59:08.639Z,100.00
2022-10-06T06:01:40.129Z,100.00
2022-10-06T06:04:14.238Z,100.00
2022-10-06T06:06:50.716Z,100.00
2022-10-06T06:09:22.837Z,100.00
2022-10-06T06:11:55.602Z,100.00
2022-10-06T06:14:49.468Z,100.00
2022-10-06T06:17:21.247Z,100.00
2022-10-06T06:19:48.145Z,97.88
2022-10-06T06:22:15.969Z,96.17
2022-10-06T06:24:45.884Z,95.14
2022-10-06T06:27:13.915Z,94.99
2022-10-06T06:29:41.000Z,94.89
2022-10-06T06:32:11.208Z,94.01
2022-10-06T06:34:38.046Z,93.62
2022-10-06T06:37:09.469Z,93.73
2022-10-06T06:39:39.956Z,93.34
2022-10-06T06:42:08.685Z,92.41
2022-10-06T06:44:55.784Z,91.98
2022-10-06T06:47:28.600Z,89.43
2022-10-06T06:49:59.123Z,89.67
2022-10-06T06:52:27.593Z,97.13
2022-10-06T06:54:54.823Z,98.36
2022-10-06T06:57:21.598Z,99.50
2022-10-06T06:59:51.008Z,92.22
2022-10-06T07:02:18.968Z,86.29
2022-10-06T07:04:47.779Z,86.28
2022-10-06T07:07:16.861Z,83.78
2022-10-06T07:09:43.752Z,83.37
2022-10-06T07:12:12.643Z,83.40
2022-10-06T07:15:08.963Z,86.70
2022-10-06T07:17:58.360Z,84.32
2022-10-06T07:20:43.806Z,82.05
2022-10-06T07:23:36.202Z,81.70
2022-10-06T07:26:06.204Z,79.73
2022-10-06T07:28:33.938Z,81.38
2022-10-06T07:31:01.478Z,80.49
2022-10-06T07:33:32.557Z,78.52
2022-10-06T07:36:02.815Z,77.75
2022-10-06T07:38:30.860Z,81.13
2022-10-06T07:41:19.223Z,76.95
2022-10-06T07:43:50.585Z,77.64
2022-10-06T07:46:19.471Z,74.90
2022-10-06T07:49:05.530Z,74.76
2022-10-06T07:51:32.695Z,74.95
2022-10-06T07:54:01.761Z,75.30
2022-10-06T07:56:38.467Z,74.12
2022-10-06T07:59:05.341Z,72.00
2022-10-06T08:01:32.240Z,74.76
2022-10-06T08:03:59.089Z,71.04
2022-10-06T08:06:26.011Z,73.35
2022-10-06T08:08:53.466Z,70.64
2022-10-06T08:11:21.128Z,70.02
2022-10-06T08:13:48.485Z,68.81
2022-10-06T08:16:18.442Z,66.33
2022-10-06T08:18:50.835Z,65.91
2022-10-06T08:21:20.721Z,65.87
2022-10-06T08:23:49.016Z,64.52
2022-10-06T08:26:17.958Z,64.29
2022-10-06T08:28:50.683Z,65.40
2022-10-06T08:31:21.410Z,63.71
2022-10-06T08:33:48.961Z,61.87
2022-10-06T08:36:21.043Z,60.66
2022-10-06T08:38:50.220Z,60.85
2022-10-06T08:41:25.380Z,59.15
2022-10-06T08:44:21.062Z,58.21
2022-10-06T08:47:02.228Z,58.41
2022-10-06T08:49:37.518Z,55.36
2022-10-06T08:52:26.561Z,54.85
2022-10-06T08:55:03.304Z,54.72
2022-10-06T08:57:43.846Z,53.82
2022-10-06T09:00:21.143Z,53.67
2022-10-06T09:02:49.235Z,52.75
2022-10-06T09:05:25.699Z,52.60
2022-10-06T09:08:20.703Z,51.48
2022-10-06T09:10:56.290Z,51.17
2022-10-06T09:13:30.982Z,48.76
2022-10-06T09:16:07.377Z,50.00
2022-10-06T09:21:40.189Z,48.36
2022-10-06T09:24:15.428Z,47.73
2022-10-06T09:26:45.602Z,46.19
2022-10-06T09:29:13.421Z,45.60
2022-10-06T09:31:44.953Z,44.90
2022-10-06T09:34:42.981Z,44.35
2022-10-06T09:37:13.913Z,43.61
2022-10-06T09:39:43.688Z,44.24
2022-10-06T09:42:10.456Z,44.25
2022-10-06T09:45:15.688Z,43.36
2022-10-06T09:47:45.988Z,42.91
2022-10-06T09:50:20.242Z,42.67
2022-10-06T09:53:03.456Z,43.44
2022-10-06T09:55:34.000Z,42.82
2022-10-06T09:58:01.769Z,41.81
2022-10-06T10:00:29.962Z,42.53
2022-10-06T10:03:00.112Z,42.01
2022-10-06T10:05:29.978Z,42.60
2022-10-06T10:08:18.311Z,42.69
2022-10-06T10:10:45.389Z,41.67
2022-10-06T10:13:25.796Z,40.26
2022-10-06T10:15:58.569Z,39.78
2022-10-06T10:18:28.976Z,40.89
2022-10-06T10:21:10.667Z,39.48
2022-10-06T10:23:42.802Z,39.51
2022-10-06T10:26:58.028Z,39.23
2022-10-06T10:30:08.074Z,37.53
2022-10-06T10:33:03.110Z,37.56
2022-10-06T10:35:34.421Z,37.50
2022-10-06T10:38:21.502Z,37.15
2022-10-06T10:41:03.027Z,37.36
2022-10-06T10:43:36.227Z,36.80
2022-10-06T10:46:19.255Z,35.54
2022-10-06T10:49:10.024Z,35.27
2022-10-06T10:51:40.482Z,35.08
2022-10-06T10:54:29.198Z,36.06
2022-10-06T10:56:56.007Z,36.41
2022-10-06T10:59:45.779Z,36.34
2022-10-06T11:02:22.941Z,35.42
2022-10-06T11:04:53.400Z,33.95
2022-10-06T11:07:27.165Z,33.87
2022-10-06T11:10:03.481Z,32.78
2022-10-06T11:12:34.089Z,32.77
2022-10-06T11:15:05.120Z,30.98
2022-10-06T11:17:44.569Z,31.99
2022-10-06T11:20:33.212Z,31.19
2022-10-06T11:23:11.454Z,30.54
2022-10-06T11:26:02.962Z,29.50
2022-10-06T11:28:56.320Z,29.66
2022-10-06T11:31:28.495Z,29.32
2022-10-06T11:33:59.396Z,27.57
2022-10-06T11:36:32.678Z,27.33
2022-10-06T11:39:08.193Z,26.82
2022-10-06T11:41:44.078Z,26.82
2022-10-06T11:44:19.845Z,27.81
2022-10-06T11:46:55.707Z,26.21
2022-10-06T11:49:32.684Z,24.67
2022-10-06T11:52:11.694Z,26.70
2022-10-06T11:54:44.842Z,25.52
2022-10-06T11:57:29.428Z,24.63
2022-10-06T12:00:17.601Z,25.01
2022-10-06T12:02:46.394Z,24.03
2022-10-06T12:05:47.185Z,26.28
2022-10-06T12:08:01.019Z,25.07
2022-10-06T12:10:27.899Z,24.46
2022-10-06T12:13:51.382Z,24.74
2022-10-06T12:18:59.219Z,25.29
2022-10-06T12:21:50.796Z,25.91
2022-10-06T12:24:26.637Z,25.64
2022-10-06T12:27:17.488Z,25.79
2022-10-06T12:29:53.074Z,26.31
2022-10-06T12:32:37.759Z,27.32
2022-10-06T12:35:25.451Z,27.21
2022-10-06T12:37:54.953Z,26.73
2022-10-06T12:40:37.557Z,27.34
2022-10-06T12:43:19.561Z,26.46
2022-10-06T12:46:12.734Z,27.24
2022-10-06T12:48:54.515Z,26.51
2022-10-06T12:51:40.162Z,26.78
2022-10-06T12:54:28.242Z,27.44
2022-10-06T12:57:00.467Z,27.47
2022-10-06T12:59:27.277Z,27.72
2022-10-06T13:01:58.505Z,27.42
2022-10-06T13:04:44.120Z,26.27
2022-10-06T13:07:13.768Z,26.57
2022-10-06T13:09:41.409Z,27.15
2022-10-06T13:12:25.550Z,27.27
2022-10-06T13:15:15.404Z,26.50
2022-10-06T13:17:50.185Z,27.08
2022-10-06T13:20:36.846Z,25.96
2022-10-06T13:23:08.849Z,26.86
2022-10-06T13:25:46.557Z,26.52
2022-10-06T13:28:29.454Z,25.83
2022-10-06T13:34:09.752Z,26.84
2022-10-06T13:36:42.224Z,26.72
2022-10-06T13:39:27.163Z,25.97
2022-10-06T13:41:53.904Z,26.54
2022-10-06T13:45:00.469Z,26.27
2022-10-06T13:47:31.948Z,26.43
2022-10-06T13:50:06.789Z,26.45
2022-10-06T13:52:36.361Z,26.67
2022-10-06T13:55:06.150Z,26.85
2022-10-06T13:57:45.388Z,25.77
2022-10-06T14:00:15.136Z,25.94
2022-10-06T14:02:43.887Z,25.63
2022-10-06T14:05:23.094Z,26.75
2022-10-06T14:07:50.805Z,28.20
2022-10-06T14:10:21.910Z,28.22
2022-10-06T14:12:49.666Z,26.89
2022-10-06T14:15:20.430Z,26.16
2022-10-06T14:17:54.473Z,27.54
2022-10-06T14:20:48.023Z,28.54
2022-10-06T14:23:50.028Z,27.12
2022-10-06T14:26:19.557Z,27.03
2022-10-06T14:28:51.658Z,26.89
2022-10-06T14:31:20.160Z,28.34
2022-10-06T14:33:49.493Z,28.20
2022-10-06T14:36:19.494Z,28.01
2022-10-06T14:38:47.605Z,26.75
2022-10-06T14:41:19.047Z,28.88
2022-10-06T14:43:47.900Z,29.10
2022-10-06T14:46:15.673Z,29.13
2022-10-06T14:48:42.633Z,29.30
2022-10-06T14:51:10.191Z,29.73
2022-10-06T14:53:39.538Z,29.06
2022-10-06T14:56:14.187Z,30.40
2022-10-06T14:58:45.873Z,29.53
2022-10-06T15:01:15.926Z,31.43
2022-10-06T15:03:48.248Z,32.22
2022-10-06T15:06:34.649Z,31.25
2022-10-06T15:09:01.466Z,31.62
2022-10-06T15:11:29.243Z,31.76
2022-10-06T15:13:58.832Z,32.20
2022-10-06T15:16:26.906Z,32.85
2022-10-06T15:18:53.767Z,33.33
2022-10-06T15:21:21.333Z,34.00
2022-10-06T15:23:52.258Z,34.87
2022-10-06T15:26:37.809Z,35.94
2022-10-06T15:29:04.903Z,37.44
2022-10-06T15:31:34.774Z,36.58
2022-10-06T15:34:03.746Z,36.98
2022-10-06T15:36:33.192Z,37.32
2022-10-06T15:39:06.032Z,36.75
2022-10-06T15:41:34.869Z,37.14
2022-10-06T15:44:02.569Z,38.28
2022-10-06T15:46:39.770Z,40.53
2022-10-06T15:49:15.329Z,39.54
2022-10-06T15:51:49.038Z,39.17
2022-10-06T15:54:27.256Z,40.60
2022-10-06T15:56:59.416Z,40.40
2022-10-06T15:59:27.340Z,40.05
2022-10-06T16:02:00.231Z,41.50
2022-10-06T16:04:37.985Z,41.27
2022-10-06T16:07:06.534Z,42.98
2022-10-06T16:09:42.088Z,41.78
2022-10-06T16:12:11.486Z,42.26
2022-10-06T16:14:38.265Z,43.23
2022-10-06T16:17:07.240Z,44.72
2022-10-06T16:19:37.037Z,44.18
2022-10-06T16:22:05.846Z,45.27
2022-10-06T16:24:32.884Z,44.67
2022-10-06T16:27:00.286Z,45.42
2022-10-06T16:29:28.196Z,45.76
2022-10-06T16:31:55.881Z,48.64
2022-10-06T16:34:23.161Z,50.05
2022-10-06T16:36:49.980Z,49.97
2022-10-06T16:39:19.501Z,52.66
2022-10-06T16:41:46.347Z,52.47
2022-10-06T16:44:13.354Z,52.09
2022-10-06T16:46:40.661Z,52.74
2022-10-06T16:49:09.369Z,54.14
2022-10-06T16:51:38.385Z,55.94
2022-10-06T16:54:08.061Z,56.69
2022-10-06T16:56:41.226Z,58.30
2022-10-06T16:59:19.918Z,60.21
2022-10-06T17:01:48.033Z,61.42
2022-10-06T17:04:20.448Z,62.27
2022-10-06T17:06:55.557Z,62.97
2022-10-06T17:09:24.401Z,63.65
2022-10-06T17:12:02.098Z,63.46
2022-10-06T17:14:30.866Z,63.44
2022-10-06T17:16:58.835Z,63.52
2022-10-06T17:19:29.446Z,62.40
2022-10-06T17:21:59.366Z,62.18
2022-10-06T17:24:28.648Z,61.25
2022-10-06T17:26:56.768Z,62.16
2022-10-06T17:29:24.452Z,61.37
2022-10-06T17:31:59.270Z,62.15
2022-10-06T17:34:31.851Z,63.31
2022-10-06T17:36:59.940Z,62.70
2022-10-06T17:39:26.833Z,63.83
2022-10-06T17:41:54.893Z,64.39
2022-10-06T17:44:35.815Z,64.08
2022-10-06T17:47:12.405Z,65.83
2022-10-06T17:49:40.249Z,63.81
2022-10-06T17:52:07.472Z,64.13
2022-10-06T17:54:34.687Z,64.57
2022-10-06T17:57:01.622Z,64.56
2022-10-06T17:59:31.029Z,64.79
2022-10-06T18:02:00.760Z,64.49
2022-10-06T18:04:27.836Z,66.60
2022-10-06T18:06:55.609Z,66.52
2022-10-06T18:09:22.878Z,67.14
2022-10-06T18:11:55.050Z,67.90
2022-10-06T18:14:27.567Z,68.77
2022-10-06T18:16:57.977Z,69.76
2022-10-06T18:19:44.301Z,70.27
2022-10-06T18:22:11.801Z,71.28
2022-10-06T18:24:40.185Z,71.93
2022-10-06T18:27:08.368Z,73.82
2022-10-06T18:29:37.465Z,75.15
2022-10-06T18:37:40.304Z,74.21
2022-10-06T18:40:10.245Z,74.29
2022-10-06T18:42:38.063Z,74.79
2022-10-06T18:45:24.116Z,74.41
2022-10-06T18:48:09.220Z,74.12
2022-10-06T18:50:36.079Z,73.11
2022-10-06T18:53:04.628Z,73.89
2022-10-06T18:55:32.224Z,72.70
2022-10-06T18:57:59.172Z,72.91
2022-10-06T19:00:26.208Z,72.90
2022-10-06T19:02:55.589Z,73.46
2022-10-06T19:05:22.764Z,73.70
2022-10-06T19:07:49.598Z,74.25
2022-10-06T19:10:16.538Z,74.46
2022-10-06T19:12:43.409Z,74.94
2022-10-06T19:15:11.450Z,74.86
2022-10-06T19:17:41.052Z,75.32
2022-10-06T19:20:10.922Z,75.51
2022-10-06T19:22:38.631Z,75.05
2022-10-06T19:25:06.060Z,75.12
2022-10-06T19:27:36.127Z,74.98
2022-10-06T19:30:03.351Z,75.42
2022-10-06T19:32:32.882Z,75.92
2022-10-06T19:34:59.868Z,76.51
2022-10-06T19:37:28.292Z,76.72
2022-10-06T19:39:55.183Z,77.74
2022-10-06T19:42:40.713Z,78.22
2022-10-06T19:45:08.872Z,78.24
2022-10-06T19:47:35.845Z,76.86
2022-10-06T19:50:10.414Z,76.81
2022-10-06T19:52:38.999Z,75.99
2022-10-06T19:55:06.340Z,75.95
2022-10-06T19:57:33.818Z,76.51
2022-10-06T20:00:01.124Z,78.30
2022-10-06T20:02:29.132Z,80.03
2022-10-06T20:04:56.918Z,80.26
2022-10-06T20:07:28.112Z,81.07
2022-10-06T20:09:55.977Z,79.64
2022-10-06T20:12:25.325Z,79.76
2022-10-06T20:14:53.890Z,79.80
2022-10-06T20:17:23.290Z,79.85
2022-10-06T20:19:56.722Z,81.08
2022-10-06T20:22:25.459Z,81.02
2022-10-06T20:24:52.563Z,80.64
2022-10-06T20:27:20.476Z,80.75
2022-10-06T20:29:47.331Z,81.34
2022-10-06T20:32:14.690Z,81.32
2022-10-06T20:34:41.613Z,82.79
2022-10-06T20:37:08.459Z,82.91
2022-10-06T20:39:54.247Z,82.66
2022-10-06T20:42:21.529Z,82.30
2022-10-06T20:44:48.357Z,81.86
2022-10-06T20:47:16.743Z,82.75
2022-10-06T20:49:44.096Z,83.32
2022-10-06T20:52:14.552Z,83.14
2022-10-06T20:54:41.946Z,83.71
2022-10-06T20:57:09.724Z,83.96
2022-10-06T20:59:37.628Z,83.84
2022-10-06T21:02:06.238Z,84.04
2022-10-06T21:04:35.110Z,84.73
2022-10-06T21:07:05.913Z,85.78
2022-10-06T21:09:32.937Z,86.30
2022-10-06T21:12:01.964Z,87.76
2022-10-06T21:14:30.259Z,86.66
2022-10-06T21:16:57.199Z,85.76
2022-10-06T21:19:25.248Z,86.21
2022-10-06T21:21:53.825Z,86.45
2022-10-06T21:24:22.387Z,85.68
2022-10-06T21:26:49.406Z,85.11
2022-10-06T21:29:16.592Z,85.26
2022-10-06T21:31:44.341Z,85.39
2022-10-06T21:34:11.181Z,85.08
2022-10-06T21:36:38.422Z,85.32
2022-10-06T21:39:06.360Z,85.80
2022-10-06T21:41:41.325Z,86.83
2022-10-06T21:44:08.087Z,87.96
2022-10-06T21:46:37.652Z,86.82
2022-10-06T21:49:07.271Z,87.24
2022-10-06T21:51:34.250Z,87.86
2022-10-06T21:54:02.369Z,88.65
2022-10-06T21:56:31.239Z,89.33
2022-10-06T21:58:58.661Z,88.79
2022-10-06T22:01:31.070Z,89.74
2022-10-06T22:04:00.479Z,90.80
2022-10-06T22:06:31.773Z,90.27
2022-10-06T22:08:59.880Z,90.19
2022-10-06T22:11:33.205Z,90.26
2022-10-06T22:14:02.999Z,90.08
2022-10-06T22:16:32.249Z,91.27
2022-10-06T22:18:59.703Z,90.64
2022-10-06T22:21:34.187Z,90.87
2022-10-06T22:24:07.118Z,91.64
2022-10-06T22:26:37.621Z,92.20
2022-10-06T22:29:06.710Z,92.21
2022-10-06T22:31:34.330Z,92.89
2022-10-06T22:34:04.705Z,93.48
2022-10-06T22:36:31.930Z,93.38
2022-10-06T22:38:58.828Z,94.48
2022-10-06T22:41:26.025Z,94.49
2022-10-06T22:43:57.717Z,94.52
2022-10-06T22:46:26.617Z,94.38
2022-10-06T22:48:53.525Z,95.71
2022-10-06T22:51:20.771Z,96.13
2022-10-06T22:53:56.535Z,96.18
2022-10-06T22:56:31.659Z,95.78
2022-10-06T22:59:02.234Z,96.45
2022-10-06T23:01:30.013Z,97.77
2022-10-06T23:03:57.826Z,97.88
2022-10-06T23:06:24.959Z,98.13
2022-10-06T23:08:51.982Z,98.74
2022-10-06T23:11:21.436Z,98.88
2022-10-06T23:13:51.284Z,99.21
2022-10-06T23:16:20.042Z,99.62
2022-10-06T23:18:47.894Z,100.00
2022-10-06T23:21:22.938Z,100.00
2022-10-06T23:23:55.376Z,100.00
2022-10-06T23:26:23.378Z,100.00
2022-10-06T23:28:56.812Z,100.00
2022-10-06T23:31:24.353Z,100.00
2022-10-06T23:33:51.240Z,100.00
2022-10-06T23:36:18.496Z,100.00
2022-10-06T23:38:46.127Z,100.00
2022-10-06T23:41:13.474Z,100.00
2022-10-06T23:43:40.351Z,100.00
2022-10-06T23:46:07.956Z,100.00
2022-10-06T23:48:34.939Z,100.00
2022-10-06T23:51:04.907Z,100.00
2022-10-06T23:53:32.463Z,100.00
2022-10-06T23:55:59.418Z,100.00
2022-10-06T23:58:27.617Z,100.00
